Smith Valley, Nevada Weather observations

Data are for 10 minute period ending at time listed.
 Day   Time   Solar   Ave.   Ave.  Ave.  Vector  Max.   Baro.   Total    
  of    of     Rad.   Air    Rel.  Wind   Wind   Wind  Press.  Precip.   
Year   Day            Temp.  Hum.  Speed  Dir.   Gust                    
2016   (PST)  Kw/m2    F      %     mph   deg.    mph    mb.     in.     
-------------------------------------------------------------------------
  44    6:50   0.00   29.1    92    2.2   289     3.5   861.2    0.00 
  44    7:00   0.01   29.8    90    0.6   264     2.3   861.3    0.00 
  44    7:10   0.03   29.8    90    1.6   232     3.9   861.3    0.00 
  44    7:20   0.04   30.3    88    1.2   340     2.4   861.5    0.00 
  44    7:30   0.02   30.3    87    0.3    17     1.9   861.6    0.00 
  44    7:40   0.02   29.8    88    0.6   306     1.8   861.7    0.00 
  44    7:50   0.06   29.5    89    2.9    62     3.7   861.8    0.00 
  44    8:00   0.12   30.9    90    1.3   157     2.6   861.9    0.00 
  44    8:10   0.18   34.5    82    0.2    47     1.1   862.1    0.00 
  44    8:20   0.22   37.5    75    1.5   203     4.5   862.2    0.00 
  44    8:30   0.25   36.4    78    2.2   216     4.1   862.3    0.00 
  44    8:40   0.27   39.2    72    1.0   310     1.8   862.4    0.00 
  44    8:50   0.30   42.0    64    1.5   252     2.6   862.4    0.00 
  44    9:00   0.33   44.0    60    1.2   120     2.6   862.5    0.00 
  44    9:10   0.36   46.3    51    0.4    61     1.6   862.5    0.00 
  44    9:20   0.39   45.5    58    1.6    88     4.2   862.4    0.00 
  44    9:30   0.41   44.8    54    1.4   355     3.7   862.6    0.00 
  44    9:40   0.44   45.7    56    2.3    46     4.2   862.5    0.00 
  44    9:50   0.46   45.4    59    6.0    32     9.7   862.5    0.00 
  44   10:00   0.48   45.4    60    3.7    10     7.9   862.4    0.00 
  44   10:10   0.51   47.2    50    1.9    15     4.0   862.4    0.00 
  44   10:20   0.53   49.4    47    2.7   275     5.6   862.4    0.00 
  44   10:30   0.55   49.4    48    3.2   310     5.9   862.4    0.00 
  44   10:40   0.56   50.0    44    3.2   311     5.0   862.3    0.00 
  44   10:50   0.58   50.9    44    3.1   331     5.0   862.1    0.00 
  44   11:00   0.59   52.1    40    3.0     2     6.1   862.1    0.00 
  44   11:10   0.61   53.5    36    3.3    71     6.5   861.9    0.00 
  44   11:20   0.62   54.3    34    3.7    27     6.4   861.9    0.00 
  44   11:30   0.63   55.1    34    6.2   350    10.7   861.9    0.00 
  44   11:40   0.64   55.3    34    5.9     3     8.5   861.7    0.00 
  44   11:50   0.64   55.8    32    6.3     1     9.4   861.6    0.00 
  44   12:00   0.65   56.4    28    5.4    17     9.4   861.4    0.00 
  44   12:10   0.65   57.1    27    4.9    14     7.4   861.3    0.00 
  44   12:20   0.65   57.8    26    4.8     9     8.7   861.2    0.00 
  44   12:30   0.65   57.8    27    5.1    21     8.5   861.2    0.00 
  44   12:40   0.64   58.5    28    5.2    20     9.4   861.1    0.00 
  44   12:50   0.64   58.2    28    5.2     4     9.2   861.0    0.00 
  44   13:00   0.63   58.8    26    4.0    16     8.3   861.0    0.00 
  44   13:10   0.62   59.0    26    4.3    20     7.5   861.0    0.00 
  44   13:20   0.62   59.3    24    4.7   356     7.5   861.0    0.00 
  44   13:30   0.61   59.5    18    4.6    13     8.0   860.7    0.00 
  44   13:40   0.59   60.0    16    5.0   359     7.7   860.6    0.00 
  44   13:50   0.58   60.4    17    3.0    17     6.7   860.6    0.00 
  44   14:00   0.56   60.9    16    1.9   356     6.6   860.5    0.00 
  44   14:10   0.55   61.4    18    2.2    38     4.9   860.2    0.00 
  44   14:20   0.53   61.1    16    3.6    29     7.4   860.1    0.00 
  44   14:30   0.51   60.6    17    3.7    10     5.8   859.9    0.00 
  44   14:40   0.49   60.7    16    1.9   347     4.2   859.8    0.00 
  44   14:50   0.47   62.4    17    2.4   272     4.7   859.7    0.00 
  44   15:00   0.44   62.7    16    2.7   247     5.4   859.6    0.00 
  44   15:10   0.42   62.6    16    2.7   249     5.8   859.5    0.00 
  44   15:20   0.39   63.0    15    2.3   273     4.5   859.5    0.00 
  44   15:30   0.36   63.4    16    3.2   256     5.0   859.4    0.00 
  44   15:40   0.33   62.4    16    1.8   191     5.6   859.3    0.00 
  44   15:50   0.31   62.6    16    2.4   253     4.4   859.2    0.00 
  44   16:00   0.28   63.1    15    1.8   234     3.1   859.2    0.00 
  44   16:10   0.25   63.4    15    0.6   212     2.0   859.2    0.00 
  44   16:20   0.22   63.2    16    0.4   196     2.5   859.1    0.00 
  44   16:30   0.14   62.7    17    1.9   236     3.4   859.1    0.00 
  44   16:40   0.15   61.1    24    2.8   238     4.6   859.1    0.00 
  44   16:50   0.08   59.2    29    3.4   272     5.0   859.0    0.00 
  44   17:00   0.06   56.4    34    3.6   277     4.5   858.9    0.00 
  44   17:10   0.02   53.1    42    3.4   272     4.5   858.8    0.00 
  44   17:20   0.02   49.8    52    1.5   265     3.0   858.7    0.00 
  44   17:30   0.01   48.0    58    1.6   208     2.5   858.8    0.00 
  44   17:40   0.00   47.8    53    1.8   180     2.9   858.9    0.00 
  44   17:50   0.00   46.2    60    2.4   198     3.4   859.3    0.00 
  44   18:00   0.00   45.4    59    3.0   200     3.7   859.3    0.00 
  44   18:10   0.00   44.8    60    1.8   237     2.8   859.4    0.00 
  44   18:20   0.00   43.6    60    1.4    41     4.4   859.4    0.00 
  44   18:30   0.00   42.9    63    0.5    42     1.6   859.6    0.00 
  44   18:40   0.00   43.4    58    2.7   175     5.6   859.8    0.00 
  44   18:50   0.00   43.3    55    1.5   186     6.0   860.1    0.00 
  44   19:00   0.00   44.6    48    1.2   207     1.8   860.2    0.00 
  44   19:10   0.00   43.0    59    2.9   182     4.7   860.5    0.00 
  44   19:20   0.00   40.9    65    2.5   197     4.2   860.7    0.00 
  44   19:30   0.00   40.3    65    1.3   159     3.2   860.6    0.00 
  44   19:40   0.00   39.8    65    3.9   131     6.4   860.6    0.00 
  44   19:50   0.00   39.6    67    3.1   162     5.6   860.5    0.00 
  44   20:00   0.00   38.3    74    2.8   204     4.6   860.9    0.00 
  44   20:10   0.00   37.3    75    3.1   157     3.9   861.0    0.00 
  44   20:20   0.00   38.6    67    2.3   158     3.7   861.1    0.00 
  44   20:30   0.00   39.1    68    1.4   116     2.5   861.1    0.00 
  44   20:40   0.00   38.4    68    2.6   119     4.5   861.1    0.00 
  44   20:50   0.00   38.0    70    1.8   132     5.3   861.3    0.00 
  44   21:00   0.00   37.0    75    2.2   131     5.3   861.4    0.00 
  44   21:10   0.00   36.2    77    3.3   102     5.8   861.3    0.00 
  44   21:20   0.00   36.1    77    1.8   135     3.4   861.4    0.00 
  44   21:30   0.00   36.0    76    2.2   124     3.6   861.3    0.00 
  44   21:40   0.00   36.7    74    0.9   227     2.6   861.3    0.00 
  44   21:50   0.00   36.2    77    0.7   171     2.3   861.4    0.00 
  44   22:00   0.00   36.0    78    1.8   171     3.4   861.3    0.00 
  44   22:10   0.00   35.8    80    0.6   169     2.4   861.3    0.00 
  44   22:20   0.00   36.0    78    1.2   140     2.1   861.2    0.00 
  44   22:30   0.00   36.0    78    1.8   284     2.6   861.3    0.00 
  44   22:40   0.00   36.5    75    1.6   328     3.7   861.4    0.00 
  44   22:50   0.00   35.8    76    2.1    57     3.4   861.4    0.00 
  44   23:00   0.00   35.3    77    3.4    88     4.5   861.2    0.00 
  44   23:10   0.00   34.9    80    1.5   188     3.4   861.2    0.00 
  44   23:20   0.00   36.0    75    1.0   130     3.2   861.4    0.00 
  44   23:30   0.00   35.9    81    2.5   258     4.2   861.4    0.00 
  44   23:40   0.00   35.3    83    0.9   356     2.7   861.4    0.00 
  44   23:50   0.00   36.3    79    2.3   330     3.6   861.5    0.00 
  45    0:00   0.00   36.8    79    0.7   195     2.3   861.4    0.00 
  45    0:10   0.00   36.4    82    1.6   195     2.4   861.3    0.00 
  45    0:20   0.00   36.4    82    1.4    71     3.7   861.3    0.00 
  45    0:30   0.00   35.4    86    1.6    94     3.3   861.2    0.00 
  45    0:40   0.00   34.7    88    2.7   262     5.2   861.4    0.00 
  45    0:50   0.00   34.7    88    1.1     4     2.9   861.5    0.00 
  45    1:00   0.00   34.8    87    2.7    50     6.4   861.4    0.00 
  45    1:10   0.00   34.0    88    1.8    79     4.2   861.4    0.00 
  45    1:20   0.00   34.8    82    2.4    33     3.9   861.4    0.00 
  45    1:30   0.00   34.9    79    1.7    16     3.9   861.5    0.00 
  45    1:40   0.00   34.0    82    2.9   201     4.7   861.6    0.00 
  45    1:50   0.00   33.5    83    2.1   200     3.3   861.7    0.00 
  45    2:00   0.00   32.8    84    1.3   213     3.3   861.7    0.00 
  45    2:10   0.00   32.7    84    3.3   156     7.0   861.1    0.00 
  45    2:20   0.00   33.6    81    2.8   195     5.9   860.8    0.00 
  45    2:30   0.00   32.9    84    3.4   176     6.1   860.6    0.00 
  45    2:40   0.00   32.3    86    3.1   134     6.1   860.3    0.00 
  45    2:50   0.00   32.3    85    2.1   202     4.3   860.5    0.00 
  45    3:00   0.00   32.1    85    1.0   198     3.4   860.7    0.00 
  45    3:10   0.00   31.4    87    3.5    58     5.9   860.7    0.00 
  45    3:20   0.00   32.4    82    3.3    70     5.7   860.4    0.00 
  45    3:30   0.00   33.8    77    2.9    40     7.2   860.6    0.00 
  45    3:40   0.00   32.4    84    4.4   292     8.7   860.7    0.00 
  45    3:50   0.00   32.0    84    2.2   303     5.3   860.7    0.00 
  45    4:00   0.00   32.2    83    2.5   331     6.1   860.8    0.00 
  45    4:10   0.00   32.0    82    1.8   169     4.9   860.9    0.00 
  45    4:20   0.00   31.3    84    1.8   153     3.7   861.1    0.00 
  45    4:30   0.00   31.5    85    2.3   158     5.6   861.3    0.00 
  45    4:40   0.00   31.2    85    3.5   167     6.5   861.4    0.00 
  45    4:50   0.00   30.1    88    1.9   168     5.2   861.2    0.00 
  45    5:00   0.00   31.2    85    3.5   220     5.5   861.5    0.00 
  45    5:10   0.00   30.7    85    3.2   144     5.3   861.4    0.00 
  45    5:20   0.00   29.8    88    4.3   106     7.3   861.4    0.00 
  45    5:30   0.00   29.9    88    3.3    98     7.8   861.5    0.00 
  45    5:40   0.00   30.9    85    3.7    16     6.2   861.7    0.00 
  45    5:50   0.00   30.4    87    3.8   268     8.0   861.7    0.00 
  45    6:00   0.00   30.5    87    2.1   352     4.5   861.7    0.00 
  45    6:10   0.00   30.9    85    2.1   246     5.3   861.7    0.00 
  45    6:20   0.00   30.9    84    1.6   261     5.3   861.8    0.00 
  45    6:30   0.00   31.4    83    0.5   279     1.5   861.9    0.00 
  45    6:40   0.00   32.1    78    1.6    62     2.8   862.0    0.00 

Return to Smith Valley graphs page.


Western Regional Climate Center,wrcc@dri.edu